sensor_id;sensor_type;location;lat;lon;timestamp;P1;durP1;ratioP1;P2;durP2;ratioP2
2538;SDS011;1280;49.760;9.664;2023-04-03T00:02:19;13.23;;;5.35;;
2538;SDS011;1280;49.760;9.664;2023-04-03T00:04:51;10.10;;;5.20;;
2538;SDS011;1280;49.760;9.664;2023-04-03T00:07:25;8.60;;;5.07;;
2538;SDS011;1280;49.760;9.664;2023-04-03T00:10:00;6.95;;;4.07;;
2538;SDS011;1280;49.760;9.664;2023-04-03T00:12:39;10.07;;;5.13;;
2538;SDS011;1280;49.760;9.664;2023-04-03T00:15:09;7.53;;;4.00;;
2538;SDS011;1280;49.760;9.664;2023-04-03T00:17:47;8.57;;;4.40;;
2538;SDS011;1280;49.760;9.664;2023-04-03T00:20:21;9.63;;;4.55;;
2538;SDS011;1280;49.760;9.664;2023-04-03T00:23:01;7.13;;;4.30;;
2538;SDS011;1280;49.760;9.664;2023-04-03T00:25:37;6.53;;;4.10;;
2538;SDS011;1280;49.760;9.664;2023-04-03T00:28:12;7.00;;;4.10;;
2538;SDS011;1280;49.760;9.664;2023-04-03T00:30:45;7.53;;;3.83;;
2538;SDS011;1280;49.760;9.664;2023-04-03T00:33:16;6.13;;;3.63;;
2538;SDS011;1280;49.760;9.664;2023-04-03T00:35:53;7.88;;;3.88;;
2538;SDS011;1280;49.760;9.664;2023-04-03T00:38:33;7.32;;;3.90;;
2538;SDS011;1280;49.760;9.664;2023-04-03T00:41:06;6.95;;;4.03;;
2538;SDS011;1280;49.760;9.664;2023-04-03T00:43:42;7.05;;;4.30;;
2538;SDS011;1280;49.760;9.664;2023-04-03T00:46:18;7.22;;;4.20;;
2538;SDS011;1280;49.760;9.664;2023-04-03T00:48:51;9.93;;;4.68;;
2538;SDS011;1280;49.760;9.664;2023-04-03T00:51:27;8.60;;;3.85;;
2538;SDS011;1280;49.760;9.664;2023-04-03T00:54:00;6.65;;;3.97;;
2538;SDS011;1280;49.760;9.664;2023-04-03T00:56:36;8.57;;;4.80;;
2538;SDS011;1280;49.760;9.664;2023-04-03T00:59:20;7.30;;;4.03;;
2538;SDS011;1280;49.760;9.664;2023-04-03T01:01:56;7.20;;;4.10;;
2538;SDS011;1280;49.760;9.664;2023-04-03T01:04:28;6.80;;;4.05;;
2538;SDS011;1280;49.760;9.664;2023-04-03T01:07:03;6.82;;;3.42;;
2538;SDS011;1280;49.760;9.664;2023-04-03T01:09:40;5.95;;;4.35;;
2538;SDS011;1280;49.760;9.664;2023-04-03T01:12:21;6.63;;;3.88;;
2538;SDS011;1280;49.760;9.664;2023-04-03T01:15:05;7.60;;;4.10;;
2538;SDS011;1280;49.760;9.664;2023-04-03T01:17:41;8.30;;;4.50;;
2538;SDS011;1280;49.760;9.664;2023-04-03T01:26:23;9.02;;;5.45;;
2538;SDS011;1280;49.760;9.664;2023-04-03T01:28:58;11.63;;;6.32;;
2538;SDS011;1280;49.760;9.664;2023-04-03T01:31:45;8.80;;;5.93;;
2538;SDS011;1280;49.760;9.664;2023-04-03T01:34:16;9.45;;;5.60;;
2538;SDS011;1280;49.760;9.664;2023-04-03T01:36:51;12.45;;;5.97;;
2538;SDS011;1280;49.760;9.664;2023-04-03T01:39:30;12.23;;;5.38;;
2538;SDS011;1280;49.760;9.664;2023-04-03T01:42:06;8.73;;;5.28;;
2538;SDS011;1280;49.760;9.664;2023-04-03T01:44:46;8.52;;;5.53;;
2538;SDS011;1280;49.760;9.664;2023-04-03T01:47:21;12.02;;;8.30;;
2538;SDS011;1280;49.760;9.664;2023-04-03T01:49:53;10.65;;;6.63;;
2538;SDS011;1280;49.760;9.664;2023-04-03T01:52:30;13.52;;;8.27;;
2538;SDS011;1280;49.760;9.664;2023-04-03T01:55:08;9.93;;;7.25;;
2538;SDS011;1280;49.760;9.664;2023-04-03T01:57:46;10.32;;;6.75;;
2538;SDS011;1280;49.760;9.664;2023-04-03T02:00:21;10.85;;;6.70;;
2538;SDS011;1280;49.760;9.664;2023-04-03T02:03:00;8.43;;;6.22;;
2538;SDS011;1280;49.760;9.664;2023-04-03T02:05:36;12.43;;;7.00;;
2538;SDS011;1280;49.760;9.664;2023-04-03T02:08:14;9.45;;;6.57;;
2538;SDS011;1280;49.760;9.664;2023-04-03T02:10:50;8.45;;;5.72;;
2538;SDS011;1280;49.760;9.664;2023-04-03T02:13:19;8.63;;;5.35;;
2538;SDS011;1280;49.760;9.664;2023-04-03T02:15:50;10.90;;;6.28;;
2538;SDS011;1280;49.760;9.664;2023-04-03T02:18:21;9.75;;;6.35;;
2538;SDS011;1280;49.760;9.664;2023-04-03T02:20:54;10.48;;;6.53;;
2538;SDS011;1280;49.760;9.664;2023-04-03T02:23:33;11.23;;;6.95;;
2538;SDS011;1280;49.760;9.664;2023-04-03T02:26:04;10.85;;;6.80;;
2538;SDS011;1280;49.760;9.664;2023-04-03T02:28:35;10.07;;;6.32;;
2538;SDS011;1280;49.760;9.664;2023-04-03T02:31:06;11.50;;;6.68;;
2538;SDS011;1280;49.760;9.664;2023-04-03T02:33:43;9.05;;;6.10;;
2538;SDS011;1280;49.760;9.664;2023-04-03T02:36:16;9.95;;;5.90;;
2538;SDS011;1280;49.760;9.664;2023-04-03T02:38:56;10.45;;;5.50;;
2538;SDS011;1280;49.760;9.664;2023-04-03T02:41:29;12.95;;;7.25;;
2538;SDS011;1280;49.760;9.664;2023-04-03T02:44:16;19.35;;;11.30;;
2538;SDS011;1280;49.760;9.664;2023-04-03T02:46:54;17.50;;;9.30;;
2538;SDS011;1280;49.760;9.664;2023-04-03T02:49:31;18.70;;;10.43;;
2538;SDS011;1280;49.760;9.664;2023-04-03T02:52:03;12.55;;;7.40;;
2538;SDS011;1280;49.760;9.664;2023-04-03T02:54:39;11.65;;;6.47;;
2538;SDS011;1280;49.760;9.664;2023-04-03T02:57:16;11.18;;;6.75;;
2538;SDS011;1280;49.760;9.664;2023-04-03T02:59:47;11.55;;;6.15;;
2538;SDS011;1280;49.760;9.664;2023-04-03T03:02:25;11.18;;;7.07;;
2538;SDS011;1280;49.760;9.664;2023-04-03T03:05:07;10.70;;;6.70;;
2538;SDS011;1280;49.760;9.664;2023-04-03T03:07:47;13.38;;;7.15;;
2538;SDS011;1280;49.760;9.664;2023-04-03T03:10:26;12.27;;;6.53;;
2538;SDS011;1280;49.760;9.664;2023-04-03T03:12:58;9.15;;;4.70;;
2538;SDS011;1280;49.760;9.664;2023-04-03T03:15:29;9.75;;;4.93;;
2538;SDS011;1280;49.760;9.664;2023-04-03T03:18:10;8.77;;;5.10;;
2538;SDS011;1280;49.760;9.664;2023-04-03T03:20:52;8.55;;;4.68;;
2538;SDS011;1280;49.760;9.664;2023-04-03T03:23:31;8.90;;;4.40;;
2538;SDS011;1280;49.760;9.664;2023-04-03T03:26:07;11.10;;;5.70;;
2538;SDS011;1280;49.760;9.664;2023-04-03T03:28:42;9.70;;;5.20;;
2538;SDS011;1280;49.760;9.664;2023-04-03T03:31:18;10.15;;;6.35;;
2538;SDS011;1280;49.760;9.664;2023-04-03T03:33:50;12.32;;;5.85;;
2538;SDS011;1280;49.760;9.664;2023-04-03T03:36:23;12.18;;;5.65;;
2538;SDS011;1280;49.760;9.664;2023-04-03T03:38:53;9.55;;;5.85;;
2538;SDS011;1280;49.760;9.664;2023-04-03T03:41:35;10.55;;;6.20;;
2538;SDS011;1280;49.760;9.664;2023-04-03T03:44:09;11.60;;;5.80;;
2538;SDS011;1280;49.760;9.664;2023-04-03T03:46:40;10.48;;;6.68;;
2538;SDS011;1280;49.760;9.664;2023-04-03T03:49:12;10.90;;;6.95;;
2538;SDS011;1280;49.760;9.664;2023-04-03T03:51:58;11.43;;;6.85;;
2538;SDS011;1280;49.760;9.664;2023-04-03T03:54:29;13.43;;;7.43;;
2538;SDS011;1280;49.760;9.664;2023-04-03T03:57:08;12.15;;;7.25;;
2538;SDS011;1280;49.760;9.664;2023-04-03T03:59:46;13.32;;;7.57;;
2538;SDS011;1280;49.760;9.664;2023-04-03T04:02:19;15.32;;;8.07;;
2538;SDS011;1280;49.760;9.664;2023-04-03T04:04:58;26.90;;;9.77;;
2538;SDS011;1280;49.760;9.664;2023-04-03T04:07:41;11.95;;;7.25;;
2538;SDS011;1280;49.760;9.664;2023-04-03T04:10:21;12.48;;;7.85;;
2538;SDS011;1280;49.760;9.664;2023-04-03T04:13:01;11.80;;;7.72;;
2538;SDS011;1280;49.760;9.664;2023-04-03T04:15:34;10.18;;;7.10;;
2538;SDS011;1280;49.760;9.664;2023-04-03T04:18:14;77.15;;;32.45;;
2538;SDS011;1280;49.760;9.664;2023-04-03T04:20:53;31.25;;;23.30;;
2538;SDS011;1280;49.760;9.664;2023-04-03T04:23:33;20.08;;;16.50;;
2538;SDS011;1280;49.760;9.664;2023-04-03T04:26:04;12.30;;;9.50;;
2538;SDS011;1280;49.760;9.664;2023-04-03T04:28:39;13.30;;;8.18;;
2538;SDS011;1280;49.760;9.664;2023-04-03T04:31:14;11.20;;;7.57;;
2538;SDS011;1280;49.760;9.664;2023-04-03T04:33:49;18.05;;;12.40;;
2538;SDS011;1280;49.760;9.664;2023-04-03T04:36:26;13.68;;;7.90;;
2538;SDS011;1280;49.760;9.664;2023-04-03T04:39:09;14.15;;;8.30;;
2538;SDS011;1280;49.760;9.664;2023-04-03T04:41:43;15.48;;;6.78;;
2538;SDS011;1280;49.760;9.664;2023-04-03T04:44:21;13.45;;;6.38;;
2538;SDS011;1280;49.760;9.664;2023-04-03T04:46:52;18.92;;;7.50;;
2538;SDS011;1280;49.760;9.664;2023-04-03T04:49:28;14.32;;;7.63;;
2538;SDS011;1280;49.760;9.664;2023-04-03T04:52:03;24.20;;;11.48;;
2538;SDS011;1280;49.760;9.664;2023-04-03T04:54:40;14.05;;;7.90;;
2538;SDS011;1280;49.760;9.664;2023-04-03T04:57:17;12.98;;;8.05;;
2538;SDS011;1280;49.760;9.664;2023-04-03T04:59:49;17.80;;;9.05;;
2538;SDS011;1280;49.760;9.664;2023-04-03T05:02:19;15.15;;;7.40;;
2538;SDS011;1280;49.760;9.664;2023-04-03T05:04:59;12.07;;;5.53;;
2538;SDS011;1280;49.760;9.664;2023-04-03T05:07:36;18.75;;;9.98;;
2538;SDS011;1280;49.760;9.664;2023-04-03T05:10:13;21.58;;;13.70;;
2538;SDS011;1280;49.760;9.664;2023-04-03T05:12:47;13.52;;;8.88;;
2538;SDS011;1280;49.760;9.664;2023-04-03T05:15:23;13.65;;;5.72;;
2538;SDS011;1280;49.760;9.664;2023-04-03T05:18:02;20.02;;;15.68;;
2538;SDS011;1280;49.760;9.664;2023-04-03T05:20:44;10.63;;;6.75;;
2538;SDS011;1280;49.760;9.664;2023-04-03T05:23:30;10.93;;;7.93;;
2538;SDS011;1280;49.760;9.664;2023-04-03T05:26:08;10.07;;;5.97;;
2538;SDS011;1280;49.760;9.664;2023-04-03T05:28:44;11.88;;;6.57;;
2538;SDS011;1280;49.760;9.664;2023-04-03T05:31:27;11.15;;;5.88;;
2538;SDS011;1280;49.760;9.664;2023-04-03T05:34:01;8.45;;;5.30;;
2538;SDS011;1280;49.760;9.664;2023-04-03T05:36:34;8.45;;;5.70;;
2538;SDS011;1280;49.760;9.664;2023-04-03T05:39:08;7.90;;;4.40;;
2538;SDS011;1280;49.760;9.664;2023-04-03T05:41:46;8.45;;;6.18;;
2538;SDS011;1280;49.760;9.664;2023-04-03T05:44:17;8.07;;;4.68;;
2538;SDS011;1280;49.760;9.664;2023-04-03T05:46:53;7.90;;;5.72;;
2538;SDS011;1280;49.760;9.664;2023-04-03T05:49:28;8.10;;;6.55;;
2538;SDS011;1280;49.760;9.664;2023-04-03T05:52:03;13.02;;;5.60;;
2538;SDS011;1280;49.760;9.664;2023-04-03T05:54:43;11.00;;;5.43;;
2538;SDS011;1280;49.760;9.664;2023-04-03T05:57:25;13.05;;;5.60;;
2538;SDS011;1280;49.760;9.664;2023-04-03T05:59:58;7.95;;;4.80;;
2538;SDS011;1280;49.760;9.664;2023-04-03T06:02:39;8.77;;;5.82;;
2538;SDS011;1280;49.760;9.664;2023-04-03T06:05:16;8.95;;;4.88;;
2538;SDS011;1280;49.760;9.664;2023-04-03T06:07:47;9.48;;;5.15;;
2538;SDS011;1280;49.760;9.664;2023-04-03T06:10:20;10.00;;;5.35;;
2538;SDS011;1280;49.760;9.664;2023-04-03T06:13:05;8.02;;;5.20;;
2538;SDS011;1280;49.760;9.664;2023-04-03T06:15:38;12.45;;;5.50;;
2538;SDS011;1280;49.760;9.664;2023-04-03T06:18:17;8.50;;;5.35;;
2538;SDS011;1280;49.760;9.664;2023-04-03T06:20:58;10.10;;;5.70;;
2538;SDS011;1280;49.760;9.664;2023-04-03T06:23:31;10.15;;;5.43;;
2538;SDS011;1280;49.760;9.664;2023-04-03T06:26:07;12.25;;;6.05;;
2538;SDS011;1280;49.760;9.664;2023-04-03T06:28:42;8.35;;;4.50;;
2538;SDS011;1280;49.760;9.664;2023-04-03T06:31:19;9.63;;;4.82;;
2538;SDS011;1280;49.760;9.664;2023-04-03T06:33:59;6.78;;;4.40;;
2538;SDS011;1280;49.760;9.664;2023-04-03T06:36:39;7.32;;;4.53;;
2538;SDS011;1280;49.760;9.664;2023-04-03T06:39:19;8.23;;;4.68;;
2538;SDS011;1280;49.760;9.664;2023-04-03T06:42:04;8.30;;;4.60;;
2538;SDS011;1280;49.760;9.664;2023-04-03T06:45:07;15.30;;;5.00;;
2538;SDS011;1280;49.760;9.664;2023-04-03T06:47:43;8.10;;;4.68;;
2538;SDS011;1280;49.760;9.664;2023-04-03T06:50:28;14.55;;;6.00;;
2538;SDS011;1280;49.760;9.664;2023-04-03T06:52:59;8.00;;;5.30;;
2538;SDS011;1280;49.760;9.664;2023-04-03T06:55:36;10.55;;;5.20;;
2538;SDS011;1280;49.760;9.664;2023-04-03T06:58:13;8.68;;;5.53;;
2538;SDS011;1280;49.760;9.664;2023-04-03T07:00:50;8.65;;;4.90;;
2538;SDS011;1280;49.760;9.664;2023-04-03T07:03:29;8.45;;;5.65;;
2538;SDS011;1280;49.760;9.664;2023-04-03T07:06:00;8.82;;;4.85;;
2538;SDS011;1280;49.760;9.664;2023-04-03T07:08:39;7.35;;;4.30;;
2538;SDS011;1280;49.760;9.664;2023-04-03T07:11:18;12.73;;;5.20;;
2538;SDS011;1280;49.760;9.664;2023-04-03T07:13:50;13.13;;;7.90;;
2538;SDS011;1280;49.760;9.664;2023-04-03T07:16:24;16.80;;;8.15;;
2538;SDS011;1280;49.760;9.664;2023-04-03T07:18:58;22.63;;;10.05;;
2538;SDS011;1280;49.760;9.664;2023-04-03T07:21:37;16.98;;;8.40;;
2538;SDS011;1280;49.760;9.664;2023-04-03T07:24:11;13.65;;;5.95;;
2538;SDS011;1280;49.760;9.664;2023-04-03T07:26:49;13.05;;;5.45;;
2538;SDS011;1280;49.760;9.664;2023-04-03T07:29:20;11.35;;;5.43;;
2538;SDS011;1280;49.760;9.664;2023-04-03T07:32:02;10.10;;;6.10;;
2538;SDS011;1280;49.760;9.664;2023-04-03T07:34:36;12.77;;;7.00;;
2538;SDS011;1280;49.760;9.664;2023-04-03T07:37:12;15.85;;;8.02;;
2538;SDS011;1280;49.760;9.664;2023-04-03T07:39:48;18.23;;;9.20;;
2538;SDS011;1280;49.760;9.664;2023-04-03T07:42:21;17.88;;;7.82;;
2538;SDS011;1280;49.760;9.664;2023-04-03T07:44:59;13.82;;;5.40;;
2538;SDS011;1280;49.760;9.664;2023-04-03T07:47:32;12.10;;;5.40;;
2538;SDS011;1280;49.760;9.664;2023-04-03T07:50:08;12.98;;;5.03;;
2538;SDS011;1280;49.760;9.664;2023-04-03T07:52:42;9.95;;;4.90;;
2538;SDS011;1280;49.760;9.664;2023-04-03T07:55:27;11.90;;;7.00;;
2538;SDS011;1280;49.760;9.664;2023-04-03T07:58:08;12.23;;;7.47;;
2538;SDS011;1280;49.760;9.664;2023-04-03T08:00:49;11.15;;;6.55;;
2538;SDS011;1280;49.760;9.664;2023-04-03T08:03:32;10.93;;;5.10;;
2538;SDS011;1280;49.760;9.664;2023-04-03T08:06:08;11.75;;;5.20;;
2538;SDS011;1280;49.760;9.664;2023-04-03T08:08:42;21.60;;;13.93;;
2538;SDS011;1280;49.760;9.664;2023-04-03T08:11:13;13.70;;;8.10;;
2538;SDS011;1280;49.760;9.664;2023-04-03T08:13:44;13.30;;;5.78;;
2538;SDS011;1280;49.760;9.664;2023-04-03T08:16:20;12.60;;;5.75;;
2538;SDS011;1280;49.760;9.664;2023-04-03T08:19:07;12.43;;;5.78;;
2538;SDS011;1280;49.760;9.664;2023-04-03T08:22:07;8.55;;;5.32;;
2538;SDS011;1280;49.760;9.664;2023-04-03T08:24:47;9.45;;;5.20;;
2538;SDS011;1280;49.760;9.664;2023-04-03T08:27:27;10.73;;;4.80;;
2538;SDS011;1280;49.760;9.664;2023-04-03T08:30:02;8.20;;;4.63;;
2538;SDS011;1280;49.760;9.664;2023-04-03T08:32:45;7.55;;;4.50;;
2538;SDS011;1280;49.760;9.664;2023-04-03T08:35:18;11.95;;;5.90;;
2538;SDS011;1280;49.760;9.664;2023-04-03T08:37:53;12.93;;;5.95;;
2538;SDS011;1280;49.760;9.664;2023-04-03T08:40:31;7.40;;;4.78;;
2538;SDS011;1280;49.760;9.664;2023-04-03T08:43:26;10.70;;;5.30;;
2538;SDS011;1280;49.760;9.664;2023-04-03T08:46:08;20.15;;;9.18;;
2538;SDS011;1280;49.760;9.664;2023-04-03T08:48:51;15.48;;;7.75;;
2538;SDS011;1280;49.760;9.664;2023-04-03T08:51:32;10.95;;;6.30;;
2538;SDS011;1280;49.760;9.664;2023-04-03T08:54:12;10.93;;;6.03;;
2538;SDS011;1280;49.760;9.664;2023-04-03T08:56:54;7.57;;;4.22;;
2538;SDS011;1280;49.760;9.664;2023-04-03T08:59:30;9.13;;;5.10;;
2538;SDS011;1280;49.760;9.664;2023-04-03T09:02:13;9.23;;;5.80;;
2538;SDS011;1280;49.760;9.664;2023-04-03T09:05:02;8.50;;;4.50;;
2538;SDS011;1280;49.760;9.664;2023-04-03T09:07:47;9.27;;;5.30;;
2538;SDS011;1280;49.760;9.664;2023-04-03T09:10:27;11.05;;;5.35;;
2538;SDS011;1280;49.760;9.664;2023-04-03T09:13:10;9.40;;;4.88;;
2538;SDS011;1280;49.760;9.664;2023-04-03T09:15:54;9.68;;;5.20;;
2538;SDS011;1280;49.760;9.664;2023-04-03T09:18:35;9.98;;;5.03;;
2538;SDS011;1280;49.760;9.664;2023-04-03T09:21:19;10.35;;;5.45;;
2538;SDS011;1280;49.760;9.664;2023-04-03T09:23:58;11.85;;;5.50;;
2538;SDS011;1280;49.760;9.664;2023-04-03T09:26:33;9.50;;;5.82;;
2538;SDS011;1280;49.760;9.664;2023-04-03T09:29:18;10.35;;;4.53;;
2538;SDS011;1280;49.760;9.664;2023-04-03T09:31:50;12.27;;;6.20;;
2538;SDS011;1280;49.760;9.664;2023-04-03T09:34:25;14.10;;;5.60;;
2538;SDS011;1280;49.760;9.664;2023-04-03T09:37:04;16.33;;;6.93;;
2538;SDS011;1280;49.760;9.664;2023-04-03T09:39:53;12.52;;;6.45;;
2538;SDS011;1280;49.760;9.664;2023-04-03T09:42:28;12.50;;;6.57;;
2538;SDS011;1280;49.760;9.664;2023-04-03T09:45:04;11.70;;;7.05;;
2538;SDS011;1280;49.760;9.664;2023-04-03T09:47:36;12.18;;;5.45;;
2538;SDS011;1280;49.760;9.664;2023-04-03T09:50:20;7.15;;;4.57;;
2538;SDS011;1280;49.760;9.664;2023-04-03T09:52:55;7.97;;;4.95;;
2538;SDS011;1280;49.760;9.664;2023-04-03T09:55:33;7.18;;;3.40;;
2538;SDS011;1280;49.760;9.664;2023-04-03T09:58:25;10.20;;;4.10;;
2538;SDS011;1280;49.760;9.664;2023-04-03T10:01:28;11.77;;;4.50;;
2538;SDS011;1280;49.760;9.664;2023-04-03T10:04:42;7.70;;;4.40;;
2538;SDS011;1280;49.760;9.664;2023-04-03T10:07:37;9.07;;;4.05;;
2538;SDS011;1280;49.760;9.664;2023-04-03T10:13:52;7.72;;;4.45;;
2538;SDS011;1280;49.760;9.664;2023-04-03T10:16:38;8.90;;;4.13;;
2538;SDS011;1280;49.760;9.664;2023-04-03T10:19:30;7.63;;;3.90;;
2538;SDS011;1280;49.760;9.664;2023-04-03T10:22:52;9.95;;;4.80;;
2538;SDS011;1280;49.760;9.664;2023-04-03T10:25:38;9.30;;;5.22;;
2538;SDS011;1280;49.760;9.664;2023-04-03T10:28:22;9.98;;;4.40;;
2538;SDS011;1280;49.760;9.664;2023-04-03T10:31:14;10.80;;;4.45;;
2538;SDS011;1280;49.760;9.664;2023-04-03T10:34:01;7.78;;;3.70;;
2538;SDS011;1280;49.760;9.664;2023-04-03T10:37:01;6.22;;;3.42;;
2538;SDS011;1280;49.760;9.664;2023-04-03T10:39:54;6.65;;;3.42;;
2538;SDS011;1280;49.760;9.664;2023-04-03T10:42:56;8.73;;;3.40;;
2538;SDS011;1280;49.760;9.664;2023-04-03T10:45:41;6.60;;;3.25;;
2538;SDS011;1280;49.760;9.664;2023-04-03T10:48:38;13.60;;;5.18;;
2538;SDS011;1280;49.760;9.664;2023-04-03T10:51:23;12.60;;;4.85;;
2538;SDS011;1280;49.760;9.664;2023-04-03T10:54:03;9.70;;;3.33;;
2538;SDS011;1280;49.760;9.664;2023-04-03T10:56:52;8.80;;;3.78;;
2538;SDS011;1280;49.760;9.664;2023-04-03T10:59:41;5.80;;;2.92;;
2538;SDS011;1280;49.760;9.664;2023-04-03T11:02:26;7.00;;;3.90;;
2538;SDS011;1280;49.760;9.664;2023-04-03T11:04:59;7.13;;;3.55;;
2538;SDS011;1280;49.760;9.664;2023-04-03T11:07:40;10.30;;;3.10;;
2538;SDS011;1280;49.760;9.664;2023-04-03T11:10:20;8.45;;;3.05;;
2538;SDS011;1280;49.760;9.664;2023-04-03T11:12:59;6.07;;;3.30;;
2538;SDS011;1280;49.760;9.664;2023-04-03T11:15:42;5.60;;;2.70;;
2538;SDS011;1280;49.760;9.664;2023-04-03T11:18:36;6.00;;;2.55;;
2538;SDS011;1280;49.760;9.664;2023-04-03T11:21:17;5.72;;;3.00;;
2538;SDS011;1280;49.760;9.664;2023-04-03T11:23:56;6.80;;;3.70;;
2538;SDS011;1280;49.760;9.664;2023-04-03T11:26:31;7.90;;;3.38;;
2538;SDS011;1280;49.760;9.664;2023-04-03T11:29:14;13.38;;;4.70;;
2538;SDS011;1280;49.760;9.664;2023-04-03T11:32:18;5.80;;;2.90;;
2538;SDS011;1280;49.760;9.664;2023-04-03T11:35:12;5.75;;;2.80;;
2538;SDS011;1280;49.760;9.664;2023-04-03T11:37:45;5.47;;;2.90;;
2538;SDS011;1280;49.760;9.664;2023-04-03T11:40:24;6.10;;;3.30;;
2538;SDS011;1280;49.760;9.664;2023-04-03T11:43:04;7.10;;;3.15;;
2538;SDS011;1280;49.760;9.664;2023-04-03T11:45:55;5.87;;;2.70;;
2538;SDS011;1280;49.760;9.664;2023-04-03T11:48:43;8.40;;;3.53;;
2538;SDS011;1280;49.760;9.664;2023-04-03T11:51:46;8.57;;;3.95;;
2538;SDS011;1280;49.760;9.664;2023-04-03T12:03:35;7.20;;;2.80;;
2538;SDS011;1280;49.760;9.664;2023-04-03T12:06:58;6.20;;;3.22;;
2538;SDS011;1280;49.760;9.664;2023-04-03T12:09:57;7.25;;;3.13;;
2538;SDS011;1280;49.760;9.664;2023-04-03T12:12:59;7.82;;;3.60;;
2538;SDS011;1280;49.760;9.664;2023-04-03T12:24:55;7.05;;;3.00;;
2538;SDS011;1280;49.760;9.664;2023-04-03T12:27:38;12.67;;;5.20;;
2538;SDS011;1280;49.760;9.664;2023-04-03T12:30:21;5.47;;;2.70;;
2538;SDS011;1280;49.760;9.664;2023-04-03T12:33:04;8.45;;;2.97;;
2538;SDS011;1280;49.760;9.664;2023-04-03T12:36:01;4.53;;;2.23;;
2538;SDS011;1280;49.760;9.664;2023-04-03T12:38:54;7.03;;;2.43;;
2538;SDS011;1280;49.760;9.664;2023-04-03T12:41:41;5.80;;;2.88;;
2538;SDS011;1280;49.760;9.664;2023-04-03T12:44:33;5.88;;;2.50;;
2538;SDS011;1280;49.760;9.664;2023-04-03T12:47:18;5.93;;;3.13;;
2538;SDS011;1280;49.760;9.664;2023-04-03T12:50:16;5.97;;;2.80;;
2538;SDS011;1280;49.760;9.664;2023-04-03T12:52:59;8.00;;;3.60;;
2538;SDS011;1280;49.760;9.664;2023-04-03T12:55:34;4.70;;;2.47;;
2538;SDS011;1280;49.760;9.664;2023-04-03T12:58:16;9.90;;;2.85;;
2538;SDS011;1280;49.760;9.664;2023-04-03T13:00:59;5.50;;;2.33;;
2538;SDS011;1280;49.760;9.664;2023-04-03T13:03:39;5.88;;;2.25;;
2538;SDS011;1280;49.760;9.664;2023-04-03T13:06:22;11.23;;;2.88;;
2538;SDS011;1280;49.760;9.664;2023-04-03T13:08:54;4.88;;;2.30;;
2538;SDS011;1280;49.760;9.664;2023-04-03T13:11:35;7.53;;;2.67;;
2538;SDS011;1280;49.760;9.664;2023-04-03T13:14:16;4.85;;;2.45;;
2538;SDS011;1280;49.760;9.664;2023-04-03T13:16:56;6.95;;;2.75;;
2538;SDS011;1280;49.760;9.664;2023-04-03T13:19:28;5.82;;;2.50;;
2538;SDS011;1280;49.760;9.664;2023-04-03T13:21:59;5.20;;;3.00;;
2538;SDS011;1280;49.760;9.664;2023-04-03T13:24:35;5.30;;;2.60;;
2538;SDS011;1280;49.760;9.664;2023-04-03T13:27:14;5.00;;;3.03;;
2538;SDS011;1280;49.760;9.664;2023-04-03T13:29:56;8.60;;;3.43;;
2538;SDS011;1280;49.760;9.664;2023-04-03T13:32:44;5.83;;;3.33;;
2538;SDS011;1280;49.760;9.664;2023-04-03T13:35:28;7.83;;;2.40;;
2538;SDS011;1280;49.760;9.664;2023-04-03T13:38:22;5.40;;;2.90;;
2538;SDS011;1280;49.760;9.664;2023-04-03T13:40:59;5.67;;;2.20;;
2538;SDS011;1280;49.760;9.664;2023-04-03T13:43:39;5.50;;;2.67;;
2538;SDS011;1280;49.760;9.664;2023-04-03T13:46:25;4.50;;;2.00;;
2538;SDS011;1280;49.760;9.664;2023-04-03T13:49:01;5.10;;;2.43;;
2538;SDS011;1280;49.760;9.664;2023-04-03T13:51:49;8.13;;;2.77;;
2538;SDS011;1280;49.760;9.664;2023-04-03T13:54:35;5.70;;;3.20;;
2538;SDS011;1280;49.760;9.664;2023-04-03T13:57:12;5.87;;;3.07;;
2538;SDS011;1280;49.760;9.664;2023-04-03T13:59:52;8.47;;;3.80;;
2538;SDS011;1280;49.760;9.664;2023-04-03T14:02:31;8.87;;;4.40;;
2538;SDS011;1280;49.760;9.664;2023-04-03T14:05:06;7.40;;;3.87;;
2538;SDS011;1280;49.760;9.664;2023-04-03T14:07:43;11.27;;;3.73;;
2538;SDS011;1280;49.760;9.664;2023-04-03T14:10:18;7.10;;;4.10;;
2538;SDS011;1280;49.760;9.664;2023-04-03T14:12:51;5.13;;;2.73;;
2538;SDS011;1280;49.760;9.664;2023-04-03T14:15:32;9.17;;;5.10;;
2538;SDS011;1280;49.760;9.664;2023-04-03T14:18:11;6.40;;;3.13;;
2538;SDS011;1280;49.760;9.664;2023-04-03T14:20:48;8.83;;;3.03;;
2538;SDS011;1280;49.760;9.664;2023-04-03T14:23:19;6.63;;;3.27;;
2538;SDS011;1280;49.760;9.664;2023-04-03T14:25:57;9.13;;;4.33;;
2538;SDS011;1280;49.760;9.664;2023-04-03T14:28:32;8.70;;;4.30;;
2538;SDS011;1280;49.760;9.664;2023-04-03T14:31:09;5.87;;;2.93;;
2538;SDS011;1280;49.760;9.664;2023-04-03T14:33:46;5.67;;;2.93;;
2538;SDS011;1280;49.760;9.664;2023-04-03T14:36:23;6.47;;;3.72;;
2538;SDS011;1280;49.760;9.664;2023-04-03T14:38:56;8.47;;;4.07;;
2538;SDS011;1280;49.760;9.664;2023-04-03T14:41:27;6.97;;;3.40;;
2538;SDS011;1280;49.760;9.664;2023-04-03T14:44:07;8.13;;;3.90;;
2538;SDS011;1280;49.760;9.664;2023-04-03T14:46:41;11.23;;;4.23;;
2538;SDS011;1280;49.760;9.664;2023-04-03T14:49:36;7.50;;;3.40;;
2538;SDS011;1280;49.760;9.664;2023-04-03T14:52:04;14.03;;;5.30;;
2538;SDS011;1280;49.760;9.664;2023-04-03T14:54:47;8.17;;;4.40;;
2538;SDS011;1280;49.760;9.664;2023-04-03T14:57:22;13.20;;;6.57;;
2538;SDS011;1280;49.760;9.664;2023-04-03T15:00:02;9.27;;;3.97;;
2538;SDS011;1280;49.760;9.664;2023-04-03T15:02:48;9.23;;;2.90;;
2538;SDS011;1280;49.760;9.664;2023-04-03T15:05:45;6.57;;;3.50;;
2538;SDS011;1280;49.760;9.664;2023-04-03T15:08:20;7.10;;;2.70;;
2538;SDS011;1280;49.760;9.664;2023-04-03T15:10:56;12.13;;;3.70;;
2538;SDS011;1280;49.760;9.664;2023-04-03T15:13:31;7.23;;;3.43;;
2538;SDS011;1280;49.760;9.664;2023-04-03T15:16:04;8.30;;;3.67;;
2538;SDS011;1280;49.760;9.664;2023-04-03T15:18:46;9.70;;;3.63;;
2538;SDS011;1280;49.760;9.664;2023-04-03T15:21:32;6.27;;;3.60;;
2538;SDS011;1280;49.760;9.664;2023-04-03T15:24:05;5.77;;;3.20;;
2538;SDS011;1280;49.760;9.664;2023-04-03T15:26:43;10.05;;;4.65;;
2538;SDS011;1280;49.760;9.664;2023-04-03T15:29:18;9.83;;;3.47;;
2538;SDS011;1280;49.760;9.664;2023-04-03T15:31:59;10.33;;;3.93;;
2538;SDS011;1280;49.760;9.664;2023-04-03T15:34:39;11.77;;;5.27;;
2538;SDS011;1280;49.760;9.664;2023-04-03T15:37:22;10.07;;;3.77;;
2538;SDS011;1280;49.760;9.664;2023-04-03T15:39:54;5.80;;;2.43;;
2538;SDS011;1280;49.760;9.664;2023-04-03T15:42:31;5.30;;;2.57;;
2538;SDS011;1280;49.760;9.664;2023-04-03T15:45:03;8.00;;;3.97;;
2538;SDS011;1280;49.760;9.664;2023-04-03T15:47:41;7.23;;;3.00;;
2538;SDS011;1280;49.760;9.664;2023-04-03T15:50:13;8.73;;;4.47;;
2538;SDS011;1280;49.760;9.664;2023-04-03T15:52:58;6.63;;;3.10;;
2538;SDS011;1280;49.760;9.664;2023-04-03T15:55:32;7.30;;;4.30;;
2538;SDS011;1280;49.760;9.664;2023-04-03T15:58:11;8.10;;;2.70;;
2538;SDS011;1280;49.760;9.664;2023-04-03T16:00:39;8.57;;;2.70;;
2538;SDS011;1280;49.760;9.664;2023-04-03T16:03:19;10.17;;;5.20;;
2538;SDS011;1280;49.760;9.664;2023-04-03T16:05:49;6.20;;;2.90;;
2538;SDS011;1280;49.760;9.664;2023-04-03T16:08:26;6.03;;;2.77;;
2538;SDS011;1280;49.760;9.664;2023-04-03T16:10:59;7.97;;;4.17;;
2538;SDS011;1280;49.760;9.664;2023-04-03T16:13:34;6.60;;;3.33;;
2538;SDS011;1280;49.760;9.664;2023-04-03T16:16:09;6.07;;;2.80;;
2538;SDS011;1280;49.760;9.664;2023-04-03T16:18:40;9.33;;;3.27;;
2538;SDS011;1280;49.760;9.664;2023-04-03T16:21:15;8.47;;;4.40;;
2538;SDS011;1280;49.760;9.664;2023-04-03T16:24:02;9.57;;;4.67;;
2538;SDS011;1280;49.760;9.664;2023-04-03T16:26:37;6.60;;;4.33;;
2538;SDS011;1280;49.760;9.664;2023-04-03T16:29:12;6.73;;;3.80;;
2538;SDS011;1280;49.760;9.664;2023-04-03T16:31:48;6.50;;;3.33;;
2538;SDS011;1280;49.760;9.664;2023-04-03T16:34:20;6.65;;;3.45;;
2538;SDS011;1280;49.760;9.664;2023-04-03T16:36:56;5.70;;;2.87;;
2538;SDS011;1280;49.760;9.664;2023-04-03T16:39:31;6.20;;;2.63;;
2538;SDS011;1280;49.760;9.664;2023-04-03T16:42:05;10.45;;;3.03;;
2538;SDS011;1280;49.760;9.664;2023-04-03T16:44:37;7.40;;;2.00;;
2538;SDS011;1280;49.760;9.664;2023-04-03T16:47:06;4.87;;;2.20;;
2538;SDS011;1280;49.760;9.664;2023-04-03T16:49:39;6.20;;;2.37;;
2538;SDS011;1280;49.760;9.664;2023-04-03T16:52:15;5.95;;;3.15;;